CheckWX is a tool to help pilots better visualize weather data.  It is not intended as a substitute for an official pre-flight weather briefing.

08:31:38 UTC

MMTO TAF
Licenciado Adolfo Lopez Mateos International Airport
Toluca, Mexico
TAF MMTO 190500Z 1906/2012 35008KT 6SM HZ SKC TX23/1920Z TN06/1912Z FM191000 00000KT 4SM HZ SCT015 TEMPO 1911/1915 2SM BR HZ FM191800 24014KT 6SM HZ BKN015 BKN250 FM200600 34005KT 5SM HZ SCT015 FM201000 00000KT 4SM HZ SKC

Mar-19@
06:00 UTC

Mar-19 @ 06:00 UTC

Mar-19@
10:00 UTC

Mar-19 @ 10:00 UTC

TAF MMTO 190500Z 1906/2012 35008KT 6SM HZ SKC TX23/1920Z TN06/1912Z
Wind
  • 350° at 8 KTS
Conditions
Haze
Cloud Levels
  • Clear skies

Mar-19@
10:00 UTC

Mar-19 @ 10:00 UTC

Mar-19@
18:00 UTC

Mar-19 @ 18:00 UTC

FM191000 00000KT 4SM HZ SCT015

From

From Standard forecast or significant change

Conditions
Haze
Cloud Levels
  • Scattered at 1,500' AGL

Mar-19@
11:00 UTC

Mar-19 @ 11:00 UTC

Mar-19@
15:00 UTC

Mar-19 @ 15:00 UTC

TEMPO 1911/1915 2SM BR HZ

Temporary

Temporary Changes expected for less than half the time period

Conditions
Mist, Haze

Mar-19@
18:00 UTC

Mar-19 @ 18:00 UTC

Mar-20@
06:00 UTC

Mar-20 @ 06:00 UTC

FM191800 24014KT 6SM HZ BKN015 BKN250

From

From Standard forecast or significant change

Wind
  • 240° at 14 KTS
Conditions
Haze
Cloud Levels
  • Broken at 1,500' AGL
  • Broken at 25,000' AGL

Mar-20@
06:00 UTC

Mar-20 @ 06:00 UTC

Mar-20@
10:00 UTC

Mar-20 @ 10:00 UTC

FM200600 34005KT 5SM HZ SCT015

From

From Standard forecast or significant change

Wind
  • 340° at 5 KTS
Conditions
Haze
Cloud Levels
  • Scattered at 1,500' AGL

Mar-20@
10:00 UTC

Mar-20 @ 10:00 UTC

Mar-20@
12:00 UTC

Mar-20 @ 12:00 UTC

FM201000 00000KT 4SM HZ SKC

From

From Standard forecast or significant change

Conditions
Haze
Cloud Levels
  • Clear skies